McAlmont, Arkansas
Current Conditions -  °F | °C
As of 1:53 PM on Wednesday 26 Nov 2014 (Local Time) from KLIT Reporting Station
Scattered Clouds Scattered Clouds  
Wind Chill: 57°   Ceiling: Unl
Heat Index: 57°   Visibility: 10mi
Dew Point: 28°   Wind: 18mph
Humidity: 33%   Direction: 300°WNW
Pressure: 30.03"   Gusts: 26mph
Location:  34.757°N, 92.1411°W
Report Text: KLIT 261953Z 30016G23KT 10SM FEW040 SCT250 14/M02 A3003 RMK AO2 SLP174 T01391022
Loading
Personal Weather Stations






























Interactive Weather Map New forecast layout! Learn more

10-Day Weather Forecast

Advertisements
Track Severe Weather on mobile